createdAt,value
2019-05-21T00:01:45.094Z,12.40
2019-05-21T00:04:27.310Z,12.30
2019-05-21T00:06:46.884Z,12.40
2019-05-21T00:09:15.660Z,12.40
2019-05-21T00:11:44.401Z,12.50
2019-05-21T00:14:13.378Z,12.50
2019-05-21T00:16:42.224Z,12.50
2019-05-21T00:19:10.980Z,12.50
2019-05-21T00:21:39.783Z,12.60
2019-05-21T00:24:08.538Z,12.50
2019-05-21T00:26:37.316Z,12.50
2019-05-21T00:29:41.838Z,12.50
2019-05-21T00:32:46.588Z,12.50
2019-05-21T00:35:52.136Z,12.50
2019-05-21T00:38:56.921Z,12.40
2019-05-21T00:42:01.817Z,12.30
2019-05-21T00:44:33.820Z,12.30
2019-05-21T00:47:02.802Z,12.30
2019-05-21T00:49:31.709Z,12.30
2019-05-21T00:52:08.178Z,12.20
2019-05-21T00:54:31.129Z,12.30
2019-05-21T00:56:59.859Z,12.40
2019-05-21T00:59:28.614Z,12.30
2019-05-21T01:01:57.471Z,12.30
2019-05-21T01:04:26.620Z,12.20
2019-05-21T01:06:55.570Z,12.10
2019-05-21T01:09:24.696Z,12.10
2019-05-21T01:11:53.451Z,12.00
2019-05-21T01:14:22.232Z,11.90
2019-05-21T01:16:51.230Z,11.90
2019-05-21T01:19:20.136Z,11.80
2019-05-21T01:21:48.998Z,11.80
2019-05-21T01:24:17.903Z,11.70
2019-05-21T01:26:46.677Z,11.60
2019-05-21T01:29:15.683Z,11.60
2019-05-21T01:31:44.498Z,11.60
2019-05-21T01:34:13.262Z,11.50
2019-05-21T01:36:42.031Z,11.40
2019-05-21T01:39:10.868Z,11.50
2019-05-21T01:41:39.915Z,11.60
2019-05-21T01:44:08.878Z,11.60
2019-05-21T01:46:37.643Z,11.60
2019-05-21T01:49:06.447Z,11.50
2019-05-21T01:51:35.288Z,11.50
2019-05-21T01:54:04.230Z,11.40
2019-05-21T01:56:33.024Z,11.40
2019-05-21T01:59:01.775Z,11.40
2019-05-21T02:01:30.535Z,11.30
2019-05-21T02:03:59.264Z,11.30
2019-05-21T02:06:28.331Z,11.30
2019-05-21T02:08:57.087Z,11.30
2019-05-21T02:11:26.122Z,11.20
2019-05-21T02:13:54.943Z,11.20
2019-05-21T02:16:23.712Z,11.20
2019-05-21T02:18:52.661Z,11.10
2019-05-21T02:21:21.984Z,11.10
2019-05-21T02:23:51.256Z,11.20
2019-05-21T02:26:20.495Z,11.20
2019-05-21T02:28:49.243Z,11.20
2019-05-21T02:31:18.043Z,11.20
2019-05-21T02:33:46.884Z,11.20
2019-05-21T02:36:15.894Z,11.20
2019-05-21T02:38:44.720Z,11.20
2019-05-21T02:41:13.485Z,11.10
2019-05-21T02:43:42.353Z,11.10
2019-05-21T02:46:11.211Z,11.10
2019-05-21T02:48:40.046Z,11.10
2019-05-21T02:51:08.953Z,11.10
2019-05-21T02:53:37.707Z,11.20
2019-05-21T02:56:06.687Z,11.20
2019-05-21T02:58:35.574Z,11.30
2019-05-21T03:01:15.509Z,11.30
2019-05-21T03:03:43.770Z,11.30
2019-05-21T03:06:14.779Z,11.20
2019-05-21T03:08:43.107Z,11.30
2019-05-21T03:11:12.126Z,11.20
2019-05-21T03:13:41.215Z,11.20
2019-05-21T03:16:10.079Z,11.10
2019-05-21T03:18:38.944Z,11.10
2019-05-21T03:21:08.227Z,11.00
2019-05-21T03:23:37.042Z,11.00
2019-05-21T03:26:05.826Z,11.10
2019-05-21T03:28:34.568Z,11.10
2019-05-21T03:31:03.661Z,11.10
2019-05-21T03:33:32.854Z,11.20
2019-05-21T03:36:01.708Z,11.20
2019-05-21T03:38:30.774Z,11.20
2019-05-21T03:40:59.557Z,11.20
2019-05-21T03:43:28.409Z,11.30
2019-05-21T03:45:57.749Z,11.40
2019-05-21T03:48:26.821Z,11.40
2019-05-21T03:50:55.783Z,11.50
2019-05-21T03:53:25.123Z,11.50
2019-05-21T03:55:54.333Z,11.60
2019-05-21T03:58:23.235Z,11.60
2019-05-21T04:00:52.049Z,11.60
2019-05-21T04:03:20.909Z,11.70
2019-05-21T04:05:50.267Z,11.70
2019-05-21T04:08:19.325Z,11.80
2019-05-21T04:10:48.150Z,11.80
2019-05-21T04:13:16.924Z,11.80
2019-05-21T04:15:57.980Z,11.90
2019-05-21T04:18:31.952Z,12.00
2019-05-21T04:21:00.986Z,12.00
2019-05-21T04:23:30.067Z,12.10
2019-05-21T04:25:58.938Z,12.20
2019-05-21T04:28:28.256Z,12.40
2019-05-21T04:30:57.274Z,12.50
2019-05-21T04:33:26.138Z,12.50
2019-05-21T04:35:54.995Z,12.60
2019-05-21T04:38:23.881Z,12.70
2019-05-21T04:40:52.789Z,12.70
2019-05-21T04:43:21.704Z,12.90
2019-05-21T04:45:50.570Z,13.00
2019-05-21T04:48:19.415Z,13.10
2019-05-21T04:50:48.253Z,13.20
2019-05-21T04:53:17.066Z,13.30
2019-05-21T04:55:45.876Z,13.50
2019-05-21T04:58:14.921Z,13.60
2019-05-21T05:00:44.018Z,13.70
2019-05-21T05:03:12.848Z,13.80
2019-05-21T05:05:41.950Z,13.90
2019-05-21T05:08:11.038Z,14.00
2019-05-21T05:10:39.887Z,14.10
2019-05-21T05:13:08.696Z,14.20
2019-05-21T05:15:37.558Z,14.30
2019-05-21T05:18:06.419Z,14.30
2019-05-21T05:20:35.263Z,14.40
2019-05-21T05:23:04.307Z,14.60
2019-05-21T05:25:33.303Z,14.70
2019-05-21T05:28:02.131Z,14.90
2019-05-21T05:30:31.005Z,15.00
2019-05-21T05:33:00.068Z,15.10
2019-05-21T05:35:29.117Z,15.20
2019-05-21T05:37:58.007Z,15.30
2019-05-21T05:40:26.877Z,15.40
2019-05-21T05:42:55.736Z,15.30
2019-05-21T05:45:25.233Z,15.10
2019-05-21T05:47:53.999Z,15.10
2019-05-21T05:50:25.194Z,15.00
2019-05-21T05:52:53.955Z,15.20
2019-05-21T05:55:22.688Z,15.60
2019-05-21T05:57:51.453Z,15.60
2019-05-21T06:00:20.576Z,15.90
2019-05-21T06:02:49.396Z,15.90
2019-05-21T06:05:18.543Z,16.00
2019-05-21T06:07:59.394Z,16.20
2019-05-21T06:10:17.867Z,16.10
2019-05-21T06:12:46.708Z,16.10
2019-05-21T06:15:15.879Z,16.20
2019-05-21T06:17:44.958Z,16.40
2019-05-21T06:20:14.249Z,16.30
2019-05-21T06:22:42.982Z,16.20
2019-05-21T06:25:12.603Z,16.30
2019-05-21T06:27:41.414Z,16.20
2019-05-21T06:30:10.984Z,16.20
2019-05-21T06:32:39.950Z,16.40
2019-05-21T06:35:08.839Z,16.30
2019-05-21T06:37:37.607Z,16.40
2019-05-21T06:40:06.653Z,16.60
2019-05-21T06:42:35.499Z,17.10
2019-05-21T06:45:05.367Z,17.80
2019-05-21T06:47:34.213Z,18.80
2019-05-21T06:50:02.970Z,19.10
2019-05-21T06:52:31.764Z,18.80
2019-05-21T06:55:00.524Z,18.80
2019-05-21T06:57:29.397Z,19.40
2019-05-21T06:59:58.256Z,19.90
2019-05-21T07:02:27.077Z,20.40
2019-05-21T07:04:55.895Z,21.10
2019-05-21T07:07:24.694Z,21.30
2019-05-21T07:09:53.739Z,21.30
2019-05-21T07:12:22.688Z,21.50
2019-05-21T07:14:51.414Z,21.70
2019-05-21T07:17:20.145Z,22.30
2019-05-21T07:19:48.920Z,22.80
2019-05-21T07:22:17.738Z,22.90
2019-05-21T07:24:46.492Z,22.90
2019-05-21T07:27:15.230Z,23.30
2019-05-21T07:29:43.950Z,23.50
2019-05-21T07:32:12.700Z,23.50
2019-05-21T07:34:41.526Z,23.10
2019-05-21T07:37:10.424Z,22.40
2019-05-21T07:39:39.269Z,22.60
2019-05-21T07:42:08.119Z,23.00
2019-05-21T07:44:36.913Z,23.70
2019-05-21T07:47:05.783Z,23.50
2019-05-21T07:49:35.009Z,23.60
2019-05-21T07:52:04.058Z,23.20
2019-05-21T07:54:32.885Z,23.50
2019-05-21T07:57:01.869Z,22.30
2019-05-21T07:59:30.701Z,22.50
2019-05-21T08:01:59.558Z,22.50
2019-05-21T08:04:28.363Z,22.90
2019-05-21T08:06:57.348Z,23.60
2019-05-21T08:09:26.384Z,23.50
2019-05-21T08:11:55.232Z,23.70
2019-05-21T08:14:24.217Z,23.20
2019-05-21T08:16:53.149Z,23.30
2019-05-21T08:19:22.066Z,23.40
2019-05-21T08:21:51.333Z,23.70
2019-05-21T08:24:20.231Z,24.30
2019-05-21T08:26:49.151Z,24.20
2019-05-21T08:29:17.938Z,23.70
2019-05-21T08:31:46.911Z,23.30
2019-05-21T08:34:15.703Z,23.00
2019-05-21T08:36:44.474Z,22.80
2019-05-21T08:39:27.821Z,22.70
2019-05-21T08:41:44.129Z,22.00
2019-05-21T08:44:12.963Z,21.30
2019-05-21T08:46:42.057Z,21.20
2019-05-21T08:49:10.825Z,21.60
2019-05-21T08:51:39.883Z,21.60
2019-05-21T08:54:08.678Z,21.40
2019-05-21T08:56:37.412Z,21.80
2019-05-21T08:59:06.267Z,22.00
2019-05-21T09:01:35.029Z,21.90
2019-05-21T09:04:04.286Z,21.70
2019-05-21T09:06:33.057Z,21.40
2019-05-21T09:09:01.853Z,21.70
2019-05-21T09:11:30.588Z,21.90
2019-05-21T09:13:59.576Z,22.30
2019-05-21T09:16:28.394Z,22.80
2019-05-21T09:18:57.367Z,23.10
2019-05-21T09:21:26.136Z,23.20
2019-05-21T09:23:55.027Z,23.00
2019-05-21T09:26:23.854Z,23.10
2019-05-21T09:28:52.630Z,23.00
2019-05-21T09:31:21.371Z,23.00
2019-05-21T09:33:50.229Z,22.80
2019-05-21T09:36:18.950Z,22.80
2019-05-21T09:38:47.715Z,22.90
2019-05-21T09:41:16.525Z,23.30
2019-05-21T09:43:45.326Z,23.60
2019-05-21T09:46:14.072Z,23.40
2019-05-21T09:48:42.906Z,23.60
2019-05-21T09:51:19.519Z,23.90
2019-05-21T09:53:42.523Z,24.20
2019-05-21T09:56:28.934Z,24.10
2019-05-21T09:58:59.777Z,24.00
2019-05-21T10:01:35.729Z,24.60
2019-05-21T10:04:04.619Z,25.00
2019-05-21T10:06:33.364Z,25.20
2019-05-21T10:09:02.568Z,25.20
2019-05-21T10:11:31.558Z,24.30
2019-05-21T10:14:00.857Z,24.40
2019-05-21T10:16:29.647Z,24.60
2019-05-21T10:18:58.637Z,24.40
2019-05-21T10:21:27.584Z,24.10
2019-05-21T10:23:56.457Z,24.20
2019-05-21T10:26:25.379Z,24.40
2019-05-21T10:28:54.195Z,24.50
2019-05-21T10:31:23.216Z,24.90
2019-05-21T10:33:52.005Z,24.60
2019-05-21T10:36:20.739Z,24.40
2019-05-21T10:38:49.506Z,24.10
2019-05-21T10:41:18.393Z,23.90
2019-05-21T10:43:47.144Z,24.90
2019-05-21T10:46:16.315Z,25.50
2019-05-21T10:48:45.134Z,25.60
2019-05-21T10:51:14.026Z,26.10
2019-05-21T10:53:43.384Z,26.10
2019-05-21T10:56:12.673Z,25.80
2019-05-21T10:58:41.724Z,26.10
2019-05-21T11:01:20.243Z,26.30
2019-05-21T11:04:08.101Z,26.30
2019-05-21T11:06:37.170Z,25.80
2019-05-21T11:09:10.101Z,25.70
2019-05-21T11:11:38.894Z,25.40
2019-05-21T11:14:07.734Z,25.20
2019-05-21T11:16:36.507Z,25.10
2019-05-21T11:19:05.321Z,24.90
2019-05-21T11:21:34.327Z,24.20
2019-05-21T11:24:03.256Z,23.90
2019-05-21T11:26:32.143Z,24.00
2019-05-21T11:29:00.982Z,23.60
2019-05-21T11:31:29.810Z,23.40
2019-05-21T11:33:58.604Z,23.60
2019-05-21T11:36:27.444Z,23.00
2019-05-21T11:38:56.321Z,22.40
2019-05-21T11:41:25.230Z,22.20
2019-05-21T11:43:53.952Z,22.30
2019-05-21T11:46:22.671Z,22.30
2019-05-21T11:48:51.467Z,22.30
2019-05-21T11:51:20.360Z,22.20
2019-05-21T11:53:49.156Z,22.00
2019-05-21T11:56:18.013Z,22.10
2019-05-21T11:58:46.798Z,22.40
2019-05-21T12:01:15.762Z,22.80
2019-05-21T12:03:44.524Z,22.80
2019-05-21T12:06:13.708Z,22.60
2019-05-21T12:08:55.502Z,22.50
2019-05-21T12:11:12.928Z,22.50
2019-05-21T12:13:41.735Z,22.40
2019-05-21T12:16:10.528Z,22.40
2019-05-21T12:18:39.302Z,22.30
2019-05-21T12:21:08.179Z,22.30
2019-05-21T12:23:37.009Z,22.10
2019-05-21T12:26:06.020Z,22.10
2019-05-21T12:28:35.096Z,21.90
2019-05-21T12:31:03.922Z,21.90
2019-05-21T12:33:35.062Z,22.00
2019-05-21T12:36:03.560Z,21.90
2019-05-21T12:38:32.587Z,21.80
2019-05-21T12:41:01.315Z,21.90
2019-05-21T12:43:30.103Z,21.90
2019-05-21T12:45:58.874Z,21.90
2019-05-21T12:48:27.660Z,21.90
2019-05-21T12:50:56.381Z,21.70
2019-05-21T12:53:25.542Z,21.60
2019-05-21T12:55:54.342Z,21.70
2019-05-21T12:58:23.095Z,21.70
2019-05-21T13:00:51.905Z,21.70
2019-05-21T13:03:20.707Z,21.70
2019-05-21T13:05:49.508Z,21.80
2019-05-21T13:08:18.307Z,21.90
2019-05-21T13:10:47.503Z,22.10
2019-05-21T13:13:16.340Z,22.10
2019-05-21T13:15:45.256Z,22.40
2019-05-21T13:18:14.059Z,22.60
2019-05-21T13:20:42.856Z,22.70
2019-05-21T13:23:11.905Z,22.60
2019-05-21T13:25:40.667Z,22.40
2019-05-21T13:28:09.741Z,22.50
2019-05-21T13:30:38.500Z,22.80
2019-05-21T13:33:07.415Z,22.90
2019-05-21T13:35:36.235Z,22.90
2019-05-21T13:38:05.125Z,23.00
2019-05-21T13:40:34.112Z,23.00
2019-05-21T13:43:02.944Z,23.00
2019-05-21T13:45:32.250Z,23.20
2019-05-21T13:48:01.493Z,23.40
2019-05-21T13:50:30.491Z,23.50
2019-05-21T13:52:59.233Z,23.60
2019-05-21T13:55:28.160Z,23.50
2019-05-21T13:57:56.984Z,23.40
2019-05-21T14:00:42.933Z,23.30
2019-05-21T14:03:12.581Z,23.20
2019-05-21T14:05:41.598Z,23.20
2019-05-21T14:08:10.493Z,23.30
2019-05-21T14:10:39.547Z,23.40
2019-05-21T14:13:08.676Z,23.50
2019-05-21T14:15:37.507Z,23.40
2019-05-21T14:18:06.459Z,23.50
2019-05-21T14:20:35.224Z,23.50
2019-05-21T14:23:04.984Z,23.60
2019-05-21T14:25:34.136Z,23.70
2019-05-21T14:28:03.580Z,23.70
2019-05-21T14:30:32.308Z,23.80
2019-05-21T14:33:01.165Z,23.90
2019-05-21T14:35:30.183Z,23.90
2019-05-21T14:37:58.983Z,23.90
2019-05-21T14:40:32.259Z,23.90
2019-05-21T14:43:00.549Z,23.80
2019-05-21T14:45:33.771Z,23.70
2019-05-21T14:47:59.720Z,23.50
2019-05-21T14:50:28.512Z,23.30
2019-05-21T14:52:57.351Z,23.00
2019-05-21T14:55:26.179Z,22.90
2019-05-21T14:57:54.934Z,22.70
2019-05-21T15:00:34.766Z,22.50
2019-05-21T15:03:03.728Z,22.40
2019-05-21T15:05:32.863Z,22.20
2019-05-21T15:08:01.591Z,22.00
2019-05-21T15:10:45.669Z,21.80
2019-05-21T15:13:05.491Z,21.60
2019-05-21T15:15:31.444Z,21.30
2019-05-21T15:18:00.238Z,21.10
2019-05-21T15:20:37.036Z,20.90
2019-05-21T15:23:05.914Z,20.70
2019-05-21T15:25:34.881Z,20.30
2019-05-21T15:28:03.783Z,20.10
2019-05-21T15:30:32.695Z,19.90
2019-05-21T15:33:01.741Z,19.80
2019-05-21T15:35:30.814Z,19.70
2019-05-21T15:37:59.773Z,19.70
2019-05-21T15:40:28.741Z,19.80
2019-05-21T15:42:57.592Z,19.80
2019-05-21T15:45:26.460Z,19.80
2019-05-21T15:47:55.511Z,19.90
2019-05-21T15:50:24.327Z,19.90
2019-05-21T15:52:53.109Z,20.00
2019-05-21T15:55:22.139Z,20.10
2019-05-21T15:57:50.913Z,20.10
2019-05-21T16:00:20.485Z,20.20
2019-05-21T16:02:49.322Z,20.20
2019-05-21T16:05:18.543Z,20.20
2019-05-21T16:07:47.325Z,20.30
2019-05-21T16:10:16.636Z,20.40
2019-05-21T16:12:45.401Z,20.50
2019-05-21T16:15:14.405Z,20.50
2019-05-21T16:17:43.197Z,20.50
2019-05-21T16:20:12.529Z,20.50
2019-05-21T16:22:41.472Z,20.60
2019-05-21T16:25:10.970Z,20.60
2019-05-21T16:27:39.748Z,20.70
2019-05-21T16:30:09.960Z,20.70
2019-05-21T16:32:38.887Z,20.70
2019-05-21T16:35:12.644Z,20.70
2019-05-21T16:37:41.519Z,20.70
2019-05-21T16:40:10.714Z,20.80
2019-05-21T16:42:39.452Z,20.70
2019-05-21T16:45:08.661Z,20.70
2019-05-21T16:47:45.477Z,20.70
2019-05-21T16:50:09.237Z,20.70
2019-05-21T16:52:38.537Z,20.70
2019-05-21T16:55:15.560Z,20.70
2019-05-21T16:57:44.411Z,20.60
2019-05-21T17:00:15.403Z,20.60
2019-05-21T17:02:44.255Z,20.50
2019-05-21T17:05:13.156Z,20.50
2019-05-21T17:07:42.192Z,20.60
2019-05-21T17:10:11.826Z,20.50
2019-05-21T17:12:40.645Z,20.50
2019-05-21T17:15:09.809Z,20.50
2019-05-21T17:17:38.870Z,20.50
2019-05-21T17:20:08.135Z,20.50
2019-05-21T17:22:39.950Z,20.50
2019-05-21T17:25:09.928Z,20.50
2019-05-21T17:27:41.967Z,20.50
2019-05-21T17:30:11.473Z,20.50
2019-05-21T17:32:40.310Z,20.50
2019-05-21T17:35:14.043Z,20.50
2019-05-21T17:37:42.793Z,20.50
2019-05-21T17:40:11.848Z,20.50
2019-05-21T17:42:40.907Z,20.60
2019-05-21T17:45:11.303Z,20.60
2019-05-21T17:47:40.312Z,20.60
2019-05-21T17:50:10.002Z,20.60
2019-05-21T17:52:39.216Z,20.50
2019-05-21T17:55:08.554Z,20.50
2019-05-21T17:57:38.358Z,20.40
2019-05-21T18:00:09.630Z,20.40
2019-05-21T18:02:39.171Z,20.40
2019-05-21T18:05:09.396Z,20.30
2019-05-21T18:07:39.399Z,20.30
2019-05-21T18:10:09.079Z,20.30
2019-05-21T18:12:38.724Z,20.30
2019-05-21T18:15:10.357Z,20.30
2019-05-21T18:17:39.749Z,20.20
2019-05-21T18:20:10.496Z,20.20
2019-05-21T18:22:40.124Z,20.10
2019-05-21T18:25:09.314Z,20.10
2019-05-21T18:27:38.568Z,20.10
2019-05-21T18:30:08.585Z,20.10
2019-05-21T18:32:40.560Z,20.00
2019-05-21T18:35:09.705Z,20.00
2019-05-21T18:37:39.026Z,19.90
2019-05-21T18:40:08.855Z,19.90
2019-05-21T18:42:37.679Z,19.90
2019-05-21T18:45:07.550Z,19.80
2019-05-21T18:47:36.500Z,19.70
2019-05-21T18:50:05.708Z,19.60
2019-05-21T18:52:34.758Z,19.60
2019-05-21T18:55:04.905Z,19.50
2019-05-21T18:57:34.201Z,19.40
2019-05-21T19:00:03.257Z,19.40
2019-05-21T19:02:32.140Z,19.40
2019-05-21T19:05:01.211Z,19.40
2019-05-21T19:07:30.536Z,19.30
2019-05-21T19:10:00.992Z,19.30
2019-05-21T19:12:37.823Z,19.20
2019-05-21T19:15:00.901Z,19.10
2019-05-21T19:17:35.549Z,19.00
2019-05-21T19:20:00.368Z,18.90
2019-05-21T19:22:29.221Z,18.80
2019-05-21T19:24:58.751Z,18.70
2019-05-21T19:27:27.803Z,18.70
2019-05-21T19:29:56.625Z,18.60
2019-05-21T19:32:25.559Z,18.60
2019-05-21T19:34:54.486Z,18.50
2019-05-21T19:37:23.595Z,18.40
2019-05-21T19:39:52.439Z,18.40
2019-05-21T19:42:21.472Z,18.30
2019-05-21T19:44:50.511Z,18.30
2019-05-21T19:47:19.663Z,18.20
2019-05-21T19:49:48.715Z,18.20
2019-05-21T19:52:17.572Z,18.20
2019-05-21T19:54:46.496Z,18.10
2019-05-21T19:57:15.497Z,18.10
2019-05-21T19:59:44.307Z,18.10
2019-05-21T20:02:13.752Z,18.10
2019-05-21T20:04:42.948Z,18.10
2019-05-21T20:07:14.372Z,18.00
2019-05-21T20:09:45.244Z,18.10
2019-05-21T20:12:15.311Z,18.00
2019-05-21T20:14:44.064Z,18.00
2019-05-21T20:17:14.877Z,17.90
2019-05-21T20:19:46.672Z,17.90
2019-05-21T20:22:16.238Z,17.80
2019-05-21T20:24:45.836Z,17.70
2019-05-21T20:27:15.420Z,17.70
2019-05-21T20:29:44.267Z,17.60
2019-05-21T20:32:14.039Z,17.50
2019-05-21T20:34:42.987Z,17.50
2019-05-21T20:37:15.411Z,17.40
2019-05-21T20:39:44.837Z,17.30
2019-05-21T20:42:17.822Z,17.30
2019-05-21T20:44:46.814Z,17.30
2019-05-21T20:47:18.299Z,17.30
2019-05-21T20:49:48.792Z,17.20
2019-05-21T20:52:19.254Z,17.20
2019-05-21T20:54:50.267Z,17.20
2019-05-21T20:57:20.321Z,17.20
2019-05-21T20:59:49.508Z,17.20
2019-05-21T21:02:18.435Z,17.20
2019-05-21T21:04:47.348Z,17.10
2019-05-21T21:07:16.569Z,17.10
2019-05-21T21:09:45.915Z,17.10
2019-05-21T21:12:14.997Z,17.10
2019-05-21T21:14:45.474Z,17.10
2019-05-21T21:17:16.284Z,17.00
2019-05-21T21:19:45.764Z,17.10
2019-05-21T21:22:15.004Z,17.00
2019-05-21T21:24:44.243Z,17.00
2019-05-21T21:27:13.969Z,17.00
2019-05-21T21:29:43.332Z,17.00
2019-05-21T21:32:12.512Z,17.00
2019-05-21T21:34:41.530Z,16.90
2019-05-21T21:37:10.369Z,16.90
2019-05-21T21:39:40.159Z,16.90
2019-05-21T21:42:09.864Z,16.90
2019-05-21T21:44:38.856Z,16.90
2019-05-21T21:47:07.613Z,16.90
2019-05-21T21:49:37.485Z,16.90
2019-05-21T21:52:07.075Z,16.80
2019-05-21T21:54:36.661Z,16.80
2019-05-21T21:57:05.505Z,16.80
2019-05-21T21:59:34.680Z,16.80
2019-05-21T22:02:11.669Z,16.70
2019-05-21T22:04:40.865Z,16.70
2019-05-21T22:07:10.235Z,16.70
2019-05-21T22:09:39.846Z,16.70
2019-05-21T22:12:12.409Z,16.80
2019-05-21T22:14:50.461Z,16.70
2019-05-21T22:17:15.478Z,16.70
2019-05-21T22:19:44.494Z,16.70
2019-05-21T22:22:14.092Z,16.60
2019-05-21T22:24:43.392Z,16.60
2019-05-21T22:27:12.415Z,16.50
2019-05-21T22:29:41.351Z,16.60
2019-05-21T22:32:10.146Z,16.50
2019-05-21T22:34:39.023Z,16.60
2019-05-21T22:37:10.116Z,16.60
2019-05-21T22:39:40.689Z,16.60
2019-05-21T22:42:09.925Z,16.60
2019-05-21T22:44:38.830Z,16.50
2019-05-21T22:47:08.803Z,16.50
2019-05-21T22:49:37.656Z,16.50
2019-05-21T22:52:06.514Z,16.50
2019-05-21T22:54:35.384Z,16.40
2019-05-21T22:57:04.158Z,16.40
2019-05-21T22:59:32.981Z,16.40
2019-05-21T23:02:03.568Z,16.30
2019-05-21T23:04:32.485Z,16.30
2019-05-21T23:07:01.410Z,16.30
2019-05-21T23:09:30.464Z,16.30
2019-05-21T23:11:59.311Z,16.30
2019-05-21T23:14:28.611Z,16.20
2019-05-21T23:16:58.095Z,16.10
2019-05-21T23:19:28.007Z,16.10
2019-05-21T23:21:57.657Z,16.10
2019-05-21T23:24:27.393Z,16.00
2019-05-21T23:26:56.468Z,16.00
2019-05-21T23:29:25.760Z,15.90
2019-05-21T23:31:54.746Z,15.90
2019-05-21T23:34:23.783Z,15.80
2019-05-21T23:36:53.462Z,15.70
2019-05-21T23:39:26.037Z,15.70
2019-05-21T23:41:55.950Z,15.70
2019-05-21T23:44:25.476Z,15.60
2019-05-21T23:46:54.436Z,15.50
2019-05-21T23:49:23.471Z,15.50
2019-05-21T23:51:52.261Z,15.40
2019-05-21T23:54:21.107Z,15.40
2019-05-21T23:56:50.364Z,15.30
2019-05-21T23:59:20.316Z,15.30
